Check out our new PWSWeather beta!
PWSweather.com
Personal Weather Stations
Station Observations
KD5LEN
Ktxnorth1, North Richland Hills, TX 76180

Ktxnorth1North Richland Hills, TX 76180

Lat: 32.885294, Lon: -97.236048

Elevation: 694

Station Type: Vantage Pro 2

http://www.atzer0.net/VWS/root/index.htm

Latest ConditionsUpdated 5:02:10 AM CST Wednesday, Feb 26, 2020
Currently Today's Max Today's Min Today's Average
Temperature 38.2°F3.4°C 40.9°F4.9°C 38.2°F3.4°C 39.6°F4.2°C
Dew Point 32.9°F0.5°C 33.8°F1.0°C 30.1°F-1.1°C 32.4°F0.2°C
Winds 18.0 mph NW29.0 kmh NW 29.0 mph -46.7 kmh - - 15.3 mph 24.6 kmh
Wind Gusts 29.0 mph46.7 kmh 33.0 mph53.1 kmh - -
Humidity 81% 82% 66% 76%
Pressure 30.25 in1024.4 mb 30.25 in1024.4 mb 30.18 in1022.0 mb -
Hour Temp Dew Point Humidity Winds Wind Gusts Pressure Precip Precip Rate Daily Precip Total
05:02 AM 38.2°F3.4°C 32.9°F0.5°C 81% 18.0 mph NW29.0 kmh NW 29.0 mph46.7 kmh 30.25 in1024.4 mb 0.00 in0.0 mm 0.00 in0.0 mm 0.00 in0.0 mm
05:00 AM 38.3°F3.5°C 33.0°F0.6°C 81% 26.0 mph WNW41.8 kmh WNW 29.0 mph46.7 kmh 30.25 in1024.4 mb 0.00 in0.0 mm 0.00 in0.0 mm 0.00 in0.0 mm
04:58 AM 38.4°F3.6°C 32.8°F0.4°C 80% 13.0 mph NW20.9 kmh NW 29.0 mph46.7 kmh 30.25 in1024.4 mb 0.00 in0.0 mm 0.00 in0.0 mm 0.00 in0.0 mm
04:56 AM 38.5°F3.6°C 32.9°F0.5°C 80% 26.0 mph NW41.8 kmh NW 29.0 mph46.7 kmh 30.25 in1024.4 mb 0.00 in0.0 mm 0.00 in0.0 mm 0.00 in0.0 mm
04:54 AM 38.5°F3.6°C 32.9°F0.5°C 80% 13.0 mph NW20.9 kmh NW 29.0 mph46.7 kmh 30.25 in1024.4 mb 0.00 in0.0 mm 0.00 in0.0 mm 0.00 in0.0 mm
04:52 AM 38.7°F3.7°C 33.1°F0.6°C 80% 18.0 mph NNW29.0 kmh NNW 29.0 mph46.7 kmh 30.25 in1024.4 mb 0.00 in0.0 mm 0.00 in0.0 mm 0.00 in0.0 mm
04:50 AM 38.7°F3.7°C 32.8°F0.4°C 79% 13.0 mph NW20.9 kmh NW 29.0 mph46.7 kmh 30.24 in1024.0 mb 0.00 in0.0 mm 0.00 in0.0 mm 0.00 in0.0 mm
04:48 AM 38.7°F3.7°C 33.1°F0.6°C 80% 11.0 mph NW17.7 kmh NW 29.0 mph46.7 kmh 30.24 in1024.0 mb 0.00 in0.0 mm 0.00 in0.0 mm 0.00 in0.0 mm
04:46 AM 38.8°F3.8°C 32.9°F0.5°C 79% 14.0 mph NW22.5 kmh NW 29.0 mph46.7 kmh 30.25 in1024.4 mb 0.00 in0.0 mm 0.00 in0.0 mm 0.00 in0.0 mm
04:44 AM 38.9°F3.8°C 33.0°F0.6°C 79% 29.0 mph NW46.7 kmh NW 29.0 mph46.7 kmh 30.24 in1024.0 mb 0.00 in0.0 mm 0.00 in0.0 mm 0.00 in0.0 mm
04:42 AM 38.9°F3.8°C 33.0°F0.6°C 79% 18.0 mph WNW29.0 kmh WNW 26.0 mph41.8 kmh 30.24 in1024.0 mb 0.00 in0.0 mm 0.00 in0.0 mm 0.00 in0.0 mm
04:40 AM 39.0°F3.9°C 33.1°F0.6°C 79% 9.0 mph W14.5 kmh W 26.0 mph41.8 kmh 30.24 in1024.0 mb 0.00 in0.0 mm 0.00 in0.0 mm 0.00 in0.0 mm
04:38 AM 39.1°F3.9°C 32.8°F0.4°C 78% 11.0 mph NW17.7 kmh NW 23.0 mph37.0 kmh 30.24 in1024.0 mb 0.00 in0.0 mm 0.00 in0.0 mm 0.00 in0.0 mm
04:36 AM 39.1°F3.9°C 32.8°F0.4°C 78% 16.0 mph NW25.7 kmh NW 19.0 mph30.6 kmh 30.24 in1024.0 mb 0.00 in0.0 mm 0.00 in0.0 mm 0.00 in0.0 mm
04:34 AM 39.2°F4.0°C 32.9°F0.5°C 78% 17.0 mph NW27.4 kmh NW 28.0 mph45.1 kmh 30.23 in1023.7 mb 0.00 in0.0 mm 0.00 in0.0 mm 0.00 in0.0 mm
04:32 AM 39.1°F3.9°C 32.8°F0.4°C 78% 14.0 mph WNW22.5 kmh WNW 28.0 mph45.1 kmh 30.23 in1023.7 mb 0.00 in0.0 mm 0.00 in0.0 mm 0.00 in0.0 mm
04:30 AM 39.2°F4.0°C 32.9°F0.5°C 78% 15.0 mph NNW24.1 kmh NNW 28.0 mph45.1 kmh 30.23 in1023.7 mb 0.00 in0.0 mm 0.00 in0.0 mm 0.00 in0.0 mm
04:28 AM 39.2°F4.0°C 32.9°F0.5°C 78% 26.0 mph W41.8 kmh W 28.0 mph45.1 kmh 30.23 in1023.7 mb 0.00 in0.0 mm 0.00 in0.0 mm 0.00 in0.0 mm
04:26 AM 39.2°F4.0°C 32.9°F0.5°C 78% 26.0 mph NW41.8 kmh NW 27.0 mph43.5 kmh 30.23 in1023.7 mb 0.00 in0.0 mm 0.00 in0.0 mm 0.00 in0.0 mm
04:23 AM 39.2°F4.0°C 32.9°F0.5°C 78% 10.0 mph NW16.1 kmh NW 27.0 mph43.5 kmh 30.23 in1023.7 mb 0.00 in0.0 mm 0.00 in0.0 mm 0.00 in0.0 mm
04:22 AM 39.3°F4.1°C 33.0°F0.6°C 78% 16.0 mph WNW25.7 kmh WNW 27.0 mph43.5 kmh 30.23 in1023.7 mb 0.00 in0.0 mm 0.00 in0.0 mm 0.00 in0.0 mm
04:20 AM 39.2°F4.0°C 32.9°F0.5°C 78% 20.0 mph WNW32.2 kmh WNW 27.0 mph43.5 kmh 30.23 in1023.7 mb 0.00 in0.0 mm 0.00 in0.0 mm 0.00 in0.0 mm
04:18 AM 39.2°F4.0°C 32.9°F0.5°C 78% 16.0 mph NW25.7 kmh NW 27.0 mph43.5 kmh 30.23 in1023.7 mb 0.00 in0.0 mm 0.00 in0.0 mm 0.00 in0.0 mm
04:16 AM 39.2°F4.0°C 32.9°F0.5°C 78% 20.0 mph NW32.2 kmh NW 24.0 mph38.6 kmh 30.23 in1023.7 mb 0.00 in0.0 mm 0.00 in0.0 mm 0.00 in0.0 mm
04:14 AM 39.3°F4.1°C 33.0°F0.6°C 78% 19.0 mph NW30.6 kmh NW 23.0 mph37.0 kmh 30.22 in1023.4 mb 0.00 in0.0 mm 0.00 in0.0 mm 0.00 in0.0 mm
04:12 AM 39.3°F4.1°C 33.0°F0.6°C 78% 9.0 mph NW14.5 kmh NW 23.0 mph37.0 kmh 30.22 in1023.4 mb 0.00 in0.0 mm 0.00 in0.0 mm 0.00 in0.0 mm
04:10 AM 39.2°F4.0°C 32.9°F0.5°C 78% 17.0 mph NW27.4 kmh NW 23.0 mph37.0 kmh 30.22 in1023.4 mb 0.00 in0.0 mm 0.00 in0.0 mm 0.00 in0.0 mm
04:08 AM 39.2°F4.0°C 33.3°F0.7°C 79% 13.0 mph NW20.9 kmh NW 20.0 mph32.2 kmh 30.22 in1023.4 mb 0.00 in0.0 mm 0.00 in0.0 mm 0.00 in0.0 mm
04:06 AM 39.1°F3.9°C 33.2°F0.7°C 79% 10.0 mph NW16.1 kmh NW 19.0 mph30.6 kmh 30.22 in1023.4 mb 0.00 in0.0 mm 0.00 in0.0 mm 0.00 in0.0 mm
04:04 AM 39.1°F3.9°C 33.2°F0.7°C 79% 18.0 mph W29.0 kmh W 33.0 mph53.1 kmh 30.22 in1023.4 mb 0.00 in0.0 mm 0.00 in0.0 mm 0.00 in0.0 mm
04:02 AM 39.1°F3.9°C 33.2°F0.7°C 79% 21.0 mph WNW33.8 kmh WNW 33.0 mph53.1 kmh 30.22 in1023.4 mb 0.00 in0.0 mm 0.00 in0.0 mm 0.00 in0.0 mm
03:59 AM 39.0°F3.9°C 33.1°F0.6°C 79% 8.0 mph NW12.9 kmh NW 33.0 mph53.1 kmh 30.22 in1023.4 mb 0.00 in0.0 mm 0.00 in0.0 mm 0.00 in0.0 mm
03:58 AM 39.0°F3.9°C 33.1°F0.6°C 79% 19.0 mph NW30.6 kmh NW 33.0 mph53.1 kmh 30.22 in1023.4 mb 0.00 in0.0 mm 0.00 in0.0 mm 0.00 in0.0 mm
03:56 AM 39.0°F3.9°C 33.4°F0.8°C 80% 19.0 mph WNW30.6 kmh WNW 33.0 mph53.1 kmh 30.22 in1023.4 mb 0.00 in0.0 mm 0.00 in0.0 mm 0.00 in0.0 mm
03:54 AM 38.9°F3.8°C 33.3°F0.7°C 80% 17.0 mph WNW27.4 kmh WNW 33.0 mph53.1 kmh 30.21 in1023.0 mb 0.00 in0.0 mm 0.00 in0.0 mm 0.00 in0.0 mm
03:52 AM 38.9°F3.8°C 33.3°F0.7°C 80% 18.0 mph NW29.0 kmh NW 33.0 mph53.1 kmh 30.21 in1023.0 mb 0.00 in0.0 mm 0.00 in0.0 mm 0.00 in0.0 mm
03:50 AM 38.9°F3.8°C 33.3°F0.7°C 80% 21.0 mph WNW33.8 kmh WNW 33.0 mph53.1 kmh 30.22 in1023.4 mb 0.00 in0.0 mm 0.00 in0.0 mm 0.00 in0.0 mm
03:48 AM 38.8°F3.8°C 33.5°F0.8°C 81% 26.0 mph WNW41.8 kmh WNW 33.0 mph53.1 kmh 30.22 in1023.4 mb 0.00 in0.0 mm 0.00 in0.0 mm 0.00 in0.0 mm
03:46 AM 38.8°F3.8°C 33.5°F0.8°C 81% 19.0 mph NW30.6 kmh NW 29.0 mph46.7 kmh 30.21 in1023.0 mb 0.00 in0.0 mm 0.00 in0.0 mm 0.00 in0.0 mm
03:44 AM 38.7°F3.7°C 33.4°F0.8°C 81% 14.0 mph NW22.5 kmh NW 24.0 mph38.6 kmh 30.21 in1023.0 mb 0.00 in0.0 mm 0.00 in0.0 mm 0.00 in0.0 mm
03:42 AM 38.7°F3.7°C 33.4°F0.8°C 81% 15.0 mph W24.1 kmh W 24.0 mph38.6 kmh 30.21 in1023.0 mb 0.00 in0.0 mm 0.00 in0.0 mm 0.00 in0.0 mm
03:40 AM 38.7°F3.7°C 33.4°F0.8°C 81% 14.0 mph W22.5 kmh W 24.0 mph38.6 kmh 30.21 in1023.0 mb 0.00 in0.0 mm 0.00 in0.0 mm 0.00 in0.0 mm
03:38 AM 38.7°F3.7°C 33.4°F0.8°C 81% 17.0 mph NW27.4 kmh NW 24.0 mph38.6 kmh 30.21 in1023.0 mb 0.00 in0.0 mm 0.00 in0.0 mm 0.00 in0.0 mm
03:36 AM 38.6°F3.7°C 33.3°F0.7°C 81% 10.0 mph NW16.1 kmh NW 14.0 mph22.5 kmh 30.21 in1023.0 mb 0.00 in0.0 mm 0.00 in0.0 mm 0.00 in0.0 mm
03:34 AM 38.6°F3.7°C 33.3°F0.7°C 81% 14.0 mph NW22.5 kmh NW 31.0 mph49.9 kmh 30.21 in1023.0 mb 0.00 in0.0 mm 0.00 in0.0 mm 0.00 in0.0 mm
03:32 AM 38.6°F3.7°C 33.6°F0.9°C 82% 16.0 mph NW25.7 kmh NW 31.0 mph49.9 kmh 30.21 in1023.0 mb 0.00 in0.0 mm 0.00 in0.0 mm 0.00 in0.0 mm
03:29 AM 38.6°F3.7°C 33.6°F0.9°C 82% 14.0 mph WNW22.5 kmh WNW 31.0 mph49.9 kmh 30.20 in1022.7 mb 0.00 in0.0 mm 0.00 in0.0 mm 0.00 in0.0 mm
03:28 AM 38.6°F3.7°C 33.6°F0.9°C 82% 25.0 mph NW40.2 kmh NW 31.0 mph49.9 kmh 30.20 in1022.7 mb 0.00 in0.0 mm 0.00 in0.0 mm 0.00 in0.0 mm
03:25 AM 38.5°F3.6°C 33.5°F0.8°C 82% 9.0 mph NW14.5 kmh NW 31.0 mph49.9 kmh 30.20 in1022.7 mb 0.00 in0.0 mm 0.00 in0.0 mm 0.00 in0.0 mm
03:24 AM 38.5°F3.6°C 33.5°F0.8°C 82% 12.0 mph WNW19.3 kmh WNW 31.0 mph49.9 kmh 30.20 in1022.7 mb 0.00 in0.0 mm 0.00 in0.0 mm 0.00 in0.0 mm
03:21 AM 38.6°F3.7°C 33.6°F0.9°C 82% 27.0 mph NW43.5 kmh NW 31.0 mph49.9 kmh 30.20 in1022.7 mb 0.00 in0.0 mm 0.00 in0.0 mm 0.00 in0.0 mm
03:20 AM 38.5°F3.6°C 33.5°F0.8°C 82% 13.0 mph WNW20.9 kmh WNW 26.0 mph41.8 kmh 30.20 in1022.7 mb 0.00 in0.0 mm 0.00 in0.0 mm 0.00 in0.0 mm
03:18 AM 38.5°F3.6°C 33.5°F0.8°C 82% 11.0 mph NW17.7 kmh NW 26.0 mph41.8 kmh 30.20 in1022.7 mb 0.00 in0.0 mm 0.00 in0.0 mm 0.00 in0.0 mm
03:16 AM 38.6°F3.7°C 33.6°F0.9°C 82% 20.0 mph WNW32.2 kmh WNW 25.0 mph40.2 kmh 30.20 in1022.7 mb 0.00 in0.0 mm 0.00 in0.0 mm 0.00 in0.0 mm
03:14 AM 38.6°F3.7°C 33.6°F0.9°C 82% 13.0 mph WNW20.9 kmh WNW 24.0 mph38.6 kmh 30.20 in1022.7 mb 0.00 in0.0 mm 0.00 in0.0 mm 0.00 in0.0 mm
03:12 AM 38.7°F3.7°C 33.7°F0.9°C 82% 18.0 mph WNW29.0 kmh WNW 24.0 mph38.6 kmh 30.20 in1022.7 mb 0.00 in0.0 mm 0.00 in0.0 mm 0.00 in0.0 mm
03:10 AM 38.7°F3.7°C 33.7°F0.9°C 82% 11.0 mph NW17.7 kmh NW 24.0 mph38.6 kmh 30.20 in1022.7 mb 0.00 in0.0 mm 0.00 in0.0 mm 0.00 in0.0 mm
03:08 AM 38.7°F3.7°C 33.7°F0.9°C 82% 8.0 mph N12.9 kmh N 24.0 mph38.6 kmh 30.20 in1022.7 mb 0.00 in0.0 mm 0.00 in0.0 mm 0.00 in0.0 mm
03:06 AM 38.7°F3.7°C 33.7°F0.9°C 82% 17.0 mph W27.4 kmh W 24.0 mph38.6 kmh 30.20 in1022.7 mb 0.00 in0.0 mm 0.00 in0.0 mm 0.00 in0.0 mm
03:04 AM 38.8°F3.8°C 33.8°F1.0°C 82% 20.0 mph NW32.2 kmh NW 28.0 mph45.1 kmh 30.20 in1022.7 mb 0.00 in0.0 mm 0.00 in0.0 mm 0.00 in0.0 mm
03:02 AM 38.8°F3.8°C 33.8°F1.0°C 82% 13.0 mph NW20.9 kmh NW 28.0 mph45.1 kmh 30.20 in1022.7 mb 0.00 in0.0 mm 0.00 in0.0 mm 0.00 in0.0 mm
03:00 AM 38.8°F3.8°C 33.8°F1.0°C 82% 17.0 mph NW27.4 kmh NW 28.0 mph45.1 kmh 30.20 in1022.7 mb 0.00 in0.0 mm 0.00 in0.0 mm 0.00 in0.0 mm
02:58 AM 38.9°F3.8°C 33.6°F0.9°C 81% 11.0 mph W17.7 kmh W 28.0 mph45.1 kmh 30.19 in1022.4 mb 0.00 in0.0 mm 0.00 in0.0 mm 0.00 in0.0 mm
02:56 AM 39.0°F3.9°C 33.7°F0.9°C 81% 13.0 mph WNW20.9 kmh WNW 28.0 mph45.1 kmh 30.20 in1022.7 mb 0.00 in0.0 mm 0.00 in0.0 mm 0.00 in0.0 mm
02:54 AM 39.0°F3.9°C 33.7°F0.9°C 81% 14.0 mph WNW22.5 kmh WNW 28.0 mph45.1 kmh 30.19 in1022.4 mb 0.00 in0.0 mm 0.00 in0.0 mm 0.00 in0.0 mm
02:52 AM 39.0°F3.9°C 33.7°F0.9°C 81% 12.0 mph WNW19.3 kmh WNW 28.0 mph45.1 kmh 30.20 in1022.7 mb 0.00 in0.0 mm 0.00 in0.0 mm 0.00 in0.0 mm
02:50 AM 39.0°F3.9°C 33.7°F0.9°C 81% 10.0 mph NW16.1 kmh NW 28.0 mph45.1 kmh 30.19 in1022.4 mb 0.00 in0.0 mm 0.00 in0.0 mm 0.00 in0.0 mm
02:48 AM 39.1°F3.9°C 33.8°F1.0°C 81% 16.0 mph WNW25.7 kmh WNW 28.0 mph45.1 kmh 30.19 in1022.4 mb 0.00 in0.0 mm 0.00 in0.0 mm 0.00 in0.0 mm
02:46 AM 39.1°F3.9°C 33.8°F1.0°C 81% 19.0 mph WNW30.6 kmh WNW 28.0 mph45.1 kmh 30.20 in1022.7 mb 0.00 in0.0 mm 0.00 in0.0 mm 0.00 in0.0 mm
02:44 AM 39.1°F3.9°C 33.5°F0.8°C 80% 20.0 mph NW32.2 kmh NW 28.0 mph45.1 kmh 30.19 in1022.4 mb 0.00 in0.0 mm 0.00 in0.0 mm 0.00 in0.0 mm
02:42 AM 39.1°F3.9°C 33.5°F0.8°C 80% 11.0 mph NW17.7 kmh NW 28.0 mph45.1 kmh 30.19 in1022.4 mb 0.00 in0.0 mm 0.00 in0.0 mm 0.00 in0.0 mm
02:40 AM 39.2°F4.0°C 33.6°F0.9°C 80% 22.0 mph NNW35.4 kmh NNW 28.0 mph45.1 kmh 30.19 in1022.4 mb 0.00 in0.0 mm 0.00 in0.0 mm 0.00 in0.0 mm
02:38 AM 39.3°F4.1°C 33.3°F0.7°C 79% 19.0 mph NW30.6 kmh NW 28.0 mph45.1 kmh 30.20 in1022.7 mb 0.00 in0.0 mm 0.00 in0.0 mm 0.00 in0.0 mm
02:36 AM 39.4°F4.1°C 33.4°F0.8°C 79% 10.0 mph NNW16.1 kmh NNW 26.0 mph41.8 kmh 30.20 in1022.7 mb 0.00 in0.0 mm 0.00 in0.0 mm 0.00 in0.0 mm
02:34 AM 39.4°F4.1°C 33.4°F0.8°C 79% 16.0 mph WNW25.7 kmh WNW 27.0 mph43.5 kmh 30.20 in1022.7 mb 0.00 in0.0 mm 0.00 in0.0 mm 0.00 in0.0 mm
02:32 AM 39.4°F4.1°C 33.1°F0.6°C 78% 12.0 mph NNW19.3 kmh NNW 27.0 mph43.5 kmh 30.19 in1022.4 mb 0.00 in0.0 mm 0.00 in0.0 mm 0.00 in0.0 mm
02:30 AM 39.4°F4.1°C 33.1°F0.6°C 78% 18.0 mph NW29.0 kmh NW 27.0 mph43.5 kmh 30.19 in1022.4 mb 0.00 in0.0 mm 0.00 in0.0 mm 0.00 in0.0 mm
02:28 AM 39.6°F4.2°C 33.3°F0.7°C 78% 18.0 mph NW29.0 kmh NW 27.0 mph43.5 kmh 30.19 in1022.4 mb 0.00 in0.0 mm 0.00 in0.0 mm 0.00 in0.0 mm
02:26 AM 39.5°F4.2°C 33.2°F0.7°C 78% 14.0 mph WNW22.5 kmh WNW 27.0 mph43.5 kmh 30.19 in1022.4 mb 0.00 in0.0 mm 0.00 in0.0 mm 0.00 in0.0 mm
02:24 AM 39.5°F4.2°C 33.2°F0.7°C 78% 18.0 mph NW29.0 kmh NW 27.0 mph43.5 kmh 30.19 in1022.4 mb 0.00 in0.0 mm 0.00 in0.0 mm 0.00 in0.0 mm
02:22 AM 39.6°F4.2°C 33.3°F0.7°C 78% 18.0 mph NW29.0 kmh NW 27.0 mph43.5 kmh 30.19 in1022.4 mb 0.00 in0.0 mm 0.00 in0.0 mm 0.00 in0.0 mm
02:20 AM 39.5°F4.2°C 33.2°F0.7°C 78% 14.0 mph WNW22.5 kmh WNW 27.0 mph43.5 kmh 30.19 in1022.4 mb 0.00 in0.0 mm 0.00 in0.0 mm 0.00 in0.0 mm
02:18 AM 39.6°F4.2°C 33.3°F0.7°C 78% 21.0 mph NW33.8 kmh NW 27.0 mph43.5 kmh 30.19 in1022.4 mb 0.00 in0.0 mm 0.00 in0.0 mm 0.00 in0.0 mm
02:16 AM 39.6°F4.2°C 33.3°F0.7°C 78% 8.0 mph NW12.9 kmh NW 27.0 mph43.5 kmh 30.19 in1022.4 mb 0.00 in0.0 mm 0.00 in0.0 mm 0.00 in0.0 mm
02:14 AM 39.6°F4.2°C 33.3°F0.7°C 78% 7.0 mph NW11.3 kmh NW 27.0 mph43.5 kmh 30.19 in1022.4 mb 0.00 in0.0 mm 0.00 in0.0 mm 0.00 in0.0 mm
02:12 AM 39.6°F4.2°C 33.0°F0.6°C 77% 11.0 mph NNW17.7 kmh NNW 27.0 mph43.5 kmh 30.19 in1022.4 mb 0.00 in0.0 mm 0.00 in0.0 mm 0.00 in0.0 mm
02:10 AM 39.7°F4.3°C 33.1°F0.6°C 77% 24.0 mph WNW38.6 kmh WNW 27.0 mph43.5 kmh 30.20 in1022.7 mb 0.00 in0.0 mm 0.00 in0.0 mm 0.00 in0.0 mm
02:08 AM 39.8°F4.3°C 33.2°F0.7°C 77% 17.0 mph NW27.4 kmh NW 27.0 mph43.5 kmh 30.19 in1022.4 mb 0.00 in0.0 mm 0.00 in0.0 mm 0.00 in0.0 mm
02:06 AM 39.8°F4.3°C 33.2°F0.7°C 77% 17.0 mph NW27.4 kmh NW 18.0 mph29.0 kmh 30.19 in1022.4 mb 0.00 in0.0 mm 0.00 in0.0 mm 0.00 in0.0 mm
02:04 AM 39.8°F4.3°C 32.9°F0.5°C 76% 19.0 mph NW30.6 kmh NW 26.0 mph41.8 kmh 30.19 in1022.4 mb 0.00 in0.0 mm 0.00 in0.0 mm 0.00 in0.0 mm
02:02 AM 39.9°F4.4°C 33.0°F0.6°C 76% 12.0 mph W19.3 kmh W 26.0 mph41.8 kmh 30.19 in1022.4 mb 0.00 in0.0 mm 0.00 in0.0 mm 0.00 in0.0 mm
02:00 AM 40.0°F4.4°C 33.1°F0.6°C 76% 11.0 mph W17.7 kmh W 26.0 mph41.8 kmh 30.19 in1022.4 mb 0.00 in0.0 mm 0.00 in0.0 mm 0.00 in0.0 mm
01:58 AM 40.0°F4.4°C 32.7°F0.4°C 75% 22.0 mph WNW35.4 kmh WNW 22.0 mph35.4 kmh 30.19 in1022.4 mb 0.00 in0.0 mm 0.00 in0.0 mm 0.00 in0.0 mm
01:56 AM 40.1°F4.5°C 32.8°F0.4°C 75% 16.0 mph NW25.7 kmh NW 22.0 mph35.4 kmh 30.19 in1022.4 mb 0.00 in0.0 mm 0.00 in0.0 mm 0.00 in0.0 mm
01:54 AM 40.1°F4.5°C 32.5°F0.3°C 74% 21.0 mph WNW33.8 kmh WNW 22.0 mph35.4 kmh 30.19 in1022.4 mb 0.00 in0.0 mm 0.00 in0.0 mm 0.00 in0.0 mm
01:52 AM 40.2°F4.6°C 32.3°F0.2°C 73% 19.0 mph NW30.6 kmh NW 22.0 mph35.4 kmh 30.19 in1022.4 mb 0.00 in0.0 mm 0.00 in0.0 mm 0.00 in0.0 mm
01:50 AM 40.2°F4.6°C 32.3°F0.2°C 73% 13.0 mph WNW20.9 kmh WNW 21.0 mph33.8 kmh 30.19 in1022.4 mb 0.00 in0.0 mm 0.00 in0.0 mm 0.00 in0.0 mm
01:47 AM 40.2°F4.6°C 32.3°F0.2°C 73% 12.0 mph WNW19.3 kmh WNW 21.0 mph33.8 kmh 30.19 in1022.4 mb 0.00 in0.0 mm 0.00 in0.0 mm 0.00 in0.0 mm
01:46 AM 40.2°F4.6°C 32.3°F0.2°C 73% 8.0 mph NW12.9 kmh NW 21.0 mph33.8 kmh 30.19 in1022.4 mb 0.00 in0.0 mm 0.00 in0.0 mm 0.00 in0.0 mm
01:44 AM 40.2°F4.6°C 31.9°F-0.1°C 72% 16.0 mph NW25.7 kmh NW 21.0 mph33.8 kmh 30.18 in1022.0 mb 0.00 in0.0 mm 0.00 in0.0 mm 0.00 in0.0 mm
01:42 AM 40.2°F4.6°C 31.9°F-0.1°C 72% 18.0 mph NW29.0 kmh NW 21.0 mph33.8 kmh 30.18 in1022.0 mb 0.00 in0.0 mm 0.00 in0.0 mm 0.00 in0.0 mm
01:40 AM 40.2°F4.6°C 31.9°F-0.1°C 72% 17.0 mph NW27.4 kmh NW 21.0 mph33.8 kmh 30.18 in1022.0 mb 0.00 in0.0 mm 0.00 in0.0 mm 0.00 in0.0 mm
01:38 AM 40.3°F4.6°C 32.0°F0.0°C 72% 10.0 mph NW16.1 kmh NW 21.0 mph33.8 kmh 30.18 in1022.0 mb 0.00 in0.0 mm 0.00 in0.0 mm 0.00 in0.0 mm
01:36 AM 40.3°F4.6°C 31.7°F-0.2°C 71% 18.0 mph WNW29.0 kmh WNW 19.0 mph30.6 kmh 30.18 in1022.0 mb 0.00 in0.0 mm 0.00 in0.0 mm 0.00 in0.0 mm
01:34 AM 40.3°F4.6°C 31.7°F-0.2°C 71% 21.0 mph NW33.8 kmh NW 27.0 mph43.5 kmh 30.18 in1022.0 mb 0.00 in0.0 mm 0.00 in0.0 mm 0.00 in0.0 mm
01:32 AM 40.3°F4.6°C 31.7°F-0.2°C 71% 17.0 mph WNW27.4 kmh WNW 27.0 mph43.5 kmh 30.18 in1022.0 mb 0.00 in0.0 mm 0.00 in0.0 mm 0.00 in0.0 mm
01:30 AM 40.3°F4.6°C 31.7°F-0.2°C 71% 19.0 mph NW30.6 kmh NW 27.0 mph43.5 kmh 30.18 in1022.0 mb 0.00 in0.0 mm 0.00 in0.0 mm 0.00 in0.0 mm
01:28 AM 40.4°F4.7°C 31.8°F-0.1°C 71% 16.0 mph WNW25.7 kmh WNW 27.0 mph43.5 kmh 30.18 in1022.0 mb 0.00 in0.0 mm 0.00 in0.0 mm 0.00 in0.0 mm
01:26 AM 40.4°F4.7°C 31.4°F-0.3°C 70% 18.0 mph W29.0 kmh W 27.0 mph43.5 kmh 30.18 in1022.0 mb 0.00 in0.0 mm 0.00 in0.0 mm 0.00 in0.0 mm
01:24 AM 40.3°F4.6°C 31.3°F-0.4°C 70% 20.0 mph W32.2 kmh W 27.0 mph43.5 kmh 30.18 in1022.0 mb 0.00 in0.0 mm 0.00 in0.0 mm 0.00 in0.0 mm
01:22 AM 40.4°F4.7°C 31.4°F-0.3°C 70% 8.0 mph NW12.9 kmh NW 27.0 mph43.5 kmh 30.18 in1022.0 mb 0.00 in0.0 mm 0.00 in0.0 mm 0.00 in0.0 mm
01:20 AM 40.4°F4.7°C 31.4°F-0.3°C 70% 19.0 mph NW30.6 kmh NW 27.0 mph43.5 kmh 30.18 in1022.0 mb 0.00 in0.0 mm 0.00 in0.0 mm 0.00 in0.0 mm
01:18 AM 40.5°F4.7°C 31.5°F-0.3°C 70% 27.0 mph NW43.5 kmh NW 27.0 mph43.5 kmh 30.18 in1022.0 mb 0.00 in0.0 mm 0.00 in0.0 mm 0.00 in0.0 mm
01:16 AM 40.4°F4.7°C 31.4°F-0.3°C 70% 22.0 mph NW35.4 kmh NW 25.0 mph40.2 kmh 30.18 in1022.0 mb 0.00 in0.0 mm 0.00 in0.0 mm 0.00 in0.0 mm
01:14 AM 40.4°F4.7°C 31.4°F-0.3°C 70% 20.0 mph WNW32.2 kmh WNW 25.0 mph40.2 kmh 30.18 in1022.0 mb 0.00 in0.0 mm 0.00 in0.0 mm 0.00 in0.0 mm
01:12 AM 40.4°F4.7°C 31.4°F-0.3°C 70% 22.0 mph NW35.4 kmh NW 22.0 mph35.4 kmh 30.18 in1022.0 mb 0.00 in0.0 mm 0.00 in0.0 mm 0.00 in0.0 mm
01:10 AM 40.4°F4.7°C 31.4°F-0.3°C 70% 12.0 mph W19.3 kmh W 20.0 mph32.2 kmh 30.18 in1022.0 mb 0.00 in0.0 mm 0.00 in0.0 mm 0.00 in0.0 mm
01:08 AM 40.4°F4.7°C 31.4°F-0.3°C 70% 17.0 mph NW27.4 kmh NW 17.0 mph27.4 kmh 30.18 in1022.0 mb 0.00 in0.0 mm 0.00 in0.0 mm 0.00 in0.0 mm
01:06 AM 40.3°F4.6°C 31.0°F-0.6°C 69% 11.0 mph NW17.7 kmh NW 17.0 mph27.4 kmh 30.18 in1022.0 mb 0.00 in0.0 mm 0.00 in0.0 mm 0.00 in0.0 mm
01:04 AM 40.4°F4.7°C 31.1°F-0.5°C 69% 9.0 mph WNW14.5 kmh WNW 22.0 mph35.4 kmh 30.18 in1022.0 mb 0.00 in0.0 mm 0.00 in0.0 mm 0.00 in0.0 mm
01:02 AM 40.3°F4.6°C 31.0°F-0.6°C 69% 18.0 mph WNW29.0 kmh WNW 22.0 mph35.4 kmh 30.18 in1022.0 mb 0.00 in0.0 mm 0.00 in0.0 mm 0.00 in0.0 mm
01:00 AM 40.3°F4.6°C 31.0°F-0.6°C 69% 16.0 mph WNW25.7 kmh WNW 22.0 mph35.4 kmh 30.18 in1022.0 mb 0.00 in0.0 mm 0.00 in0.0 mm 0.00 in0.0 mm
12:58 AM 40.3°F4.6°C 31.0°F-0.6°C 69% 9.0 mph NW14.5 kmh NW 22.0 mph35.4 kmh 30.18 in1022.0 mb 0.00 in0.0 mm 0.00 in0.0 mm 0.00 in0.0 mm
12:56 AM 40.3°F4.6°C 31.0°F-0.6°C 69% 13.0 mph NW20.9 kmh NW 22.0 mph35.4 kmh 30.18 in1022.0 mb 0.00 in0.0 mm 0.00 in0.0 mm 0.00 in0.0 mm
12:54 AM 40.3°F4.6°C 31.0°F-0.6°C 69% 15.0 mph NW24.1 kmh NW 22.0 mph35.4 kmh 30.18 in1022.0 mb 0.00 in0.0 mm 0.00 in0.0 mm 0.00 in0.0 mm
12:52 AM 40.3°F4.6°C 31.0°F-0.6°C 69% 7.0 mph NW11.3 kmh NW 22.0 mph35.4 kmh 30.18 in1022.0 mb 0.00 in0.0 mm 0.00 in0.0 mm 0.00 in0.0 mm
12:50 AM 40.3°F4.6°C 31.0°F-0.6°C 69% 11.0 mph NW17.7 kmh NW 22.0 mph35.4 kmh 30.18 in1022.0 mb 0.00 in0.0 mm 0.00 in0.0 mm 0.00 in0.0 mm
12:48 AM 40.3°F4.6°C 31.0°F-0.6°C 69% 9.0 mph NW14.5 kmh NW 22.0 mph35.4 kmh 30.18 in1022.0 mb 0.00 in0.0 mm 0.00 in0.0 mm 0.00 in0.0 mm
12:46 AM 40.3°F4.6°C 31.0°F-0.6°C 69% 18.0 mph WNW29.0 kmh WNW 22.0 mph35.4 kmh 30.18 in1022.0 mb 0.00 in0.0 mm 0.00 in0.0 mm 0.00 in0.0 mm
12:44 AM 40.3°F4.6°C 31.0°F-0.6°C 69% 14.0 mph NW22.5 kmh NW 22.0 mph35.4 kmh 30.18 in1022.0 mb 0.00 in0.0 mm 0.00 in0.0 mm 0.00 in0.0 mm
12:42 AM 40.4°F4.7°C 30.7°F-0.7°C 68% 10.0 mph WNW16.1 kmh WNW 22.0 mph35.4 kmh 30.18 in1022.0 mb 0.00 in0.0 mm 0.00 in0.0 mm 0.00 in0.0 mm
12:40 AM 40.4°F4.7°C 30.7°F-0.7°C 68% 10.0 mph WNW16.1 kmh WNW 22.0 mph35.4 kmh 30.18 in1022.0 mb 0.00 in0.0 mm 0.00 in0.0 mm 0.00 in0.0 mm
12:38 AM 40.5°F4.7°C 30.8°F-0.7°C 68% 6.0 mph W9.7 kmh W 22.0 mph35.4 kmh 30.18 in1022.0 mb 0.00 in0.0 mm 0.00 in0.0 mm 0.00 in0.0 mm
12:36 AM 40.5°F4.7°C 30.8°F-0.7°C 68% 16.0 mph NW25.7 kmh NW 22.0 mph35.4 kmh 30.18 in1022.0 mb 0.00 in0.0 mm 0.00 in0.0 mm 0.00 in0.0 mm
12:34 AM 40.5°F4.7°C 30.4°F-0.9°C 67% 16.0 mph WNW25.7 kmh WNW 21.0 mph33.8 kmh 30.18 in1022.0 mb 0.00 in0.0 mm 0.00 in0.0 mm 0.00 in0.0 mm
12:32 AM 40.5°F4.7°C 30.4°F-0.9°C 67% 9.0 mph WNW14.5 kmh WNW 21.0 mph33.8 kmh 30.18 in1022.0 mb 0.00 in0.0 mm 0.00 in0.0 mm 0.00 in0.0 mm
12:30 AM 40.4°F4.7°C 30.3°F-0.9°C 67% 12.0 mph NW19.3 kmh NW 21.0 mph33.8 kmh 30.18 in1022.0 mb 0.00 in0.0 mm 0.00 in0.0 mm 0.00 in0.0 mm
12:28 AM 40.4°F4.7°C 30.3°F-0.9°C 67% 12.0 mph NW19.3 kmh NW 21.0 mph33.8 kmh 30.18 in1022.0 mb 0.00 in0.0 mm 0.00 in0.0 mm 0.00 in0.0 mm
12:26 AM 40.4°F4.7°C 30.3°F-0.9°C 67% 15.0 mph NW24.1 kmh NW 21.0 mph33.8 kmh 30.18 in1022.0 mb 0.00 in0.0 mm 0.00 in0.0 mm 0.00 in0.0 mm
12:24 AM 40.4°F4.7°C 30.3°F-0.9°C 67% 9.0 mph WNW14.5 kmh WNW 21.0 mph33.8 kmh 30.18 in1022.0 mb 0.00 in0.0 mm 0.00 in0.0 mm 0.00 in0.0 mm
12:22 AM 40.5°F4.7°C 30.4°F-0.9°C 67% 7.0 mph W11.3 kmh W 21.0 mph33.8 kmh 30.18 in1022.0 mb 0.00 in0.0 mm 0.00 in0.0 mm 0.00 in0.0 mm
12:20 AM 40.5°F4.7°C 30.4°F-0.9°C 67% 11.0 mph NW17.7 kmh NW 21.0 mph33.8 kmh 30.18 in1022.0 mb 0.00 in0.0 mm 0.00 in0.0 mm 0.00 in0.0 mm
12:18 AM 40.5°F4.7°C 30.1°F-1.1°C 66% 9.0 mph WNW14.5 kmh WNW 21.0 mph33.8 kmh 30.18 in1022.0 mb 0.00 in0.0 mm 0.00 in0.0 mm 0.00 in0.0 mm
12:16 AM 40.6°F4.8°C 30.2°F-1.0°C 66% 10.0 mph NW16.1 kmh NW 21.0 mph33.8 kmh 30.18 in1022.0 mb 0.00 in0.0 mm 0.00 in0.0 mm 0.00 in0.0 mm
12:14 AM 40.6°F4.8°C 30.2°F-1.0°C 66% 12.0 mph WNW19.3 kmh WNW 21.0 mph33.8 kmh 30.18 in1022.0 mb 0.00 in0.0 mm 0.00 in0.0 mm 0.00 in0.0 mm
12:12 AM 40.6°F4.8°C 30.2°F-1.0°C 66% 15.0 mph NW24.1 kmh NW 21.0 mph33.8 kmh 30.18 in1022.0 mb 0.00 in0.0 mm 0.00 in0.0 mm 0.00 in0.0 mm
12:10 AM 40.7°F4.8°C 30.2°F-1.0°C 66% 13.0 mph NW20.9 kmh NW 21.0 mph33.8 kmh 30.18 in1022.0 mb 0.00 in0.0 mm 0.00 in0.0 mm 0.00 in0.0 mm
12:08 AM 40.7°F4.8°C 30.2°F-1.0°C 66% 12.0 mph W19.3 kmh W 15.0 mph24.1 kmh 30.18 in1022.0 mb 0.00 in0.0 mm 0.00 in0.0 mm 0.00 in0.0 mm
12:06 AM 40.7°F4.8°C 30.2°F-1.0°C 66% 15.0 mph NW24.1 kmh NW 15.0 mph24.1 kmh 30.18 in1022.0 mb 0.00 in0.0 mm 0.00 in0.0 mm 0.00 in0.0 mm
12:04 AM 40.8°F4.9°C 30.3°F-0.9°C 66% 13.0 mph NW20.9 kmh NW 24.0 mph38.6 kmh 30.18 in1022.0 mb 0.00 in0.0 mm 0.00 in0.0 mm 0.00 in0.0 mm
12:02 AM 40.8°F4.9°C 30.3°F-0.9°C 66% 14.0 mph NW22.5 kmh NW 24.0 mph38.6 kmh 30.18 in1022.0 mb 0.00 in0.0 mm 0.00 in0.0 mm 0.00 in0.0 mm
12:00 AM 40.9°F4.9°C 30.4°F-0.9°C 66% 9.0 mph NW14.5 kmh NW 24.0 mph38.6 kmh 30.18 in1022.0 mb 0.00 in0.0 mm 0.00 in0.0 mm 0.00 in0.0 mm